createdAt,value
2022-09-24T00:01:16.660Z,99161.41
2022-09-24T00:03:50.152Z,99154.38
2022-09-24T00:06:19.270Z,99162.50
2022-09-24T00:08:47.551Z,99147.09
2022-09-24T00:11:14.635Z,99141.97
2022-09-24T00:13:41.763Z,99138.78
2022-09-24T00:16:13.477Z,99136.41
2022-09-24T00:18:40.962Z,99131.75
2022-09-24T00:21:16.338Z,99137.28
2022-09-24T00:23:43.446Z,99135.19
2022-09-24T00:26:32.032Z,99129.91
2022-09-24T00:28:59.328Z,99132.41
2022-09-24T00:31:26.686Z,99136.03
2022-09-24T00:33:54.372Z,99131.84
2022-09-24T00:36:22.295Z,99126.72
2022-09-24T00:38:54.195Z,99131.63
2022-09-24T00:41:24.173Z,99133.84
2022-09-24T00:43:51.546Z,99127.31
2022-09-24T00:46:27.910Z,99129.84
2022-09-24T00:48:58.743Z,99129.84
2022-09-24T00:51:28.502Z,99136.06
2022-09-24T00:53:59.993Z,99129.03
2022-09-24T00:56:28.422Z,99135.25
2022-09-24T00:58:57.217Z,99124.94
2022-09-24T01:01:25.601Z,99136.25
2022-09-24T01:03:55.471Z,99129.25
2022-09-24T01:06:22.673Z,99125.44
2022-09-24T01:08:49.512Z,99118.44
2022-09-24T01:11:41.021Z,99120.66
2022-09-24T01:14:39.224Z,99117.44
2022-09-24T01:17:32.867Z,99118.06
2022-09-24T01:20:26.812Z,99105.03
2022-09-24T01:23:05.404Z,99092.50
2022-09-24T01:26:02.923Z,99093.00
2022-09-24T01:29:05.965Z,99091.91
2022-09-24T01:31:44.556Z,99085.09
2022-09-24T01:34:15.781Z,99086.56
2022-09-24T01:36:45.350Z,99082.16
2022-09-24T01:39:14.620Z,99078.53
2022-09-24T01:41:43.159Z,99075.50
2022-09-24T01:44:11.724Z,99075.72
2022-09-24T01:46:40.241Z,99061.88
2022-09-24T01:49:08.210Z,99062.06
2022-09-24T01:51:44.056Z,99064.75
2022-09-24T01:54:28.516Z,99058.38
2022-09-24T01:57:13.298Z,99062.69
2022-09-24T01:59:47.132Z,99055.88
2022-09-24T02:02:30.494Z,99048.25
2022-09-24T02:05:12.979Z,99051.44
2022-09-24T02:07:47.047Z,99054.00
2022-09-24T02:10:16.902Z,99044.50
2022-09-24T02:12:47.149Z,99052.00
2022-09-24T02:15:20.896Z,99051.38
2022-09-24T02:17:53.572Z,99052.34
2022-09-24T02:20:23.219Z,99047.28
2022-09-24T02:22:51.714Z,99047.78
2022-09-24T02:25:25.143Z,99054.31
2022-09-24T02:27:51.814Z,99046.50
2022-09-24T02:30:18.382Z,99037.91
2022-09-24T02:32:45.074Z,99044.09
2022-09-24T02:35:12.809Z,99042.50
2022-09-24T02:37:42.414Z,99039.31
2022-09-24T02:40:12.185Z,99041.72
2022-09-24T02:42:41.102Z,99037.41
2022-09-24T02:45:08.462Z,99035.50
2022-09-24T02:47:35.019Z,99032.31
2022-09-24T02:50:01.671Z,99041.53
2022-09-24T02:52:28.220Z,99038.03
2022-09-24T02:54:54.758Z,99030.72
2022-09-24T02:57:21.245Z,99027.22
2022-09-24T02:59:47.929Z,99021.28
2022-09-24T03:02:15.392Z,99019.69
2022-09-24T03:04:42.646Z,99017.81
2022-09-24T03:07:10.291Z,99013.69
2022-09-24T03:09:36.961Z,99012.25
2022-09-24T03:12:05.224Z,99007.66
2022-09-24T03:14:31.966Z,99006.84
2022-09-24T03:16:58.690Z,99005.25
2022-09-24T03:19:25.213Z,98994.91
2022-09-24T03:21:51.741Z,98999.22
2022-09-24T03:24:18.239Z,98995.88
2022-09-24T03:26:45.354Z,98987.78
2022-09-24T03:29:11.898Z,98991.59
2022-09-24T03:31:38.501Z,98997.31
2022-09-24T03:34:05.274Z,98988.72
2022-09-24T03:36:31.869Z,98992.22
2022-09-24T03:38:58.370Z,98987.78
2022-09-24T03:41:27.508Z,98985.53
2022-09-24T03:43:54.791Z,98988.25
2022-09-24T03:46:22.109Z,98982.84
2022-09-24T03:48:49.167Z,98982.72
2022-09-24T03:51:20.297Z,98973.50
2022-09-24T03:53:47.915Z,98962.06
2022-09-24T03:56:15.632Z,98965.25
2022-09-24T03:58:47.697Z,98960.63
2022-09-24T04:01:14.519Z,98964.63
2022-09-24T04:03:41.100Z,98968.63
2022-09-24T04:06:07.915Z,98961.28
2022-09-24T04:08:34.469Z,98954.75
2022-09-24T04:11:01.094Z,98971.00
2022-09-24T04:13:27.669Z,98969.41
2022-09-24T04:15:55.124Z,98968.63
2022-09-24T04:18:22.181Z,98960.03
2022-09-24T04:20:48.837Z,98958.41
2022-09-24T04:23:15.484Z,98958.41
2022-09-24T04:25:42.371Z,98960.31
2022-09-24T04:28:09.944Z,98961.44
2022-09-24T04:30:38.159Z,98961.25
2022-09-24T04:33:04.789Z,98962.69
2022-09-24T04:35:36.006Z,98964.28
2022-09-24T04:38:04.048Z,98964.75
2022-09-24T04:40:31.434Z,98974.63
2022-09-24T04:42:58.139Z,98970.31
2022-09-24T04:45:25.115Z,98974.13
2022-09-24T04:47:53.605Z,98978.91
2022-09-24T04:50:20.660Z,98976.84
2022-09-24T04:52:47.292Z,98976.25
2022-09-24T04:55:14.188Z,98982.16
2022-09-24T04:57:41.435Z,98966.91
2022-09-24T05:00:15.353Z,98967.41
2022-09-24T05:02:42.801Z,98965.72
2022-09-24T05:05:11.001Z,98964.88
2022-09-24T05:07:38.734Z,98957.34
2022-09-24T05:10:06.761Z,98959.72
2022-09-24T05:12:35.433Z,98960.94
2022-09-24T05:15:02.590Z,98963.28
2022-09-24T05:17:29.195Z,98960.81
2022-09-24T05:19:57.893Z,98949.03
2022-09-24T05:22:27.511Z,98949.44
2022-09-24T05:24:54.528Z,98953.97
2022-09-24T05:27:21.771Z,98953.03
2022-09-24T05:29:48.286Z,98957.59
2022-09-24T05:32:19.938Z,98954.56
2022-09-24T05:34:46.769Z,98952.78
2022-09-24T05:37:14.840Z,98960.63
2022-09-24T05:39:41.814Z,98956.94
2022-09-24T05:42:15.754Z,98970.53
2022-09-24T05:44:48.628Z,98979.34
2022-09-24T05:47:18.498Z,98982.00
2022-09-24T05:49:45.214Z,98981.81
2022-09-24T05:52:11.932Z,98983.84
2022-09-24T05:54:38.467Z,98980.31
2022-09-24T05:57:05.003Z,98978.31
2022-09-24T05:59:32.291Z,98981.50
2022-09-24T06:01:58.838Z,98986.72
2022-09-24T06:04:25.490Z,98991.97
2022-09-24T06:06:52.309Z,98985.88
2022-09-24T06:09:18.825Z,98985.59
2022-09-24T06:11:45.910Z,98991.03
2022-09-24T06:14:13.314Z,98991.50
2022-09-24T06:16:40.013Z,98989.72
2022-09-24T06:19:06.701Z,98986.34
2022-09-24T06:21:33.234Z,98989.53
2022-09-24T06:23:59.779Z,98996.09
2022-09-24T06:26:27.337Z,98991.69
2022-09-24T06:28:54.379Z,98991.03
2022-09-24T06:31:21.315Z,98985.75
2022-09-24T06:33:48.154Z,98997.34
2022-09-24T06:36:14.789Z,98997.13
2022-09-24T06:38:41.933Z,98987.84
2022-09-24T06:41:10.160Z,98987.59
2022-09-24T06:43:37.497Z,98997.41
2022-09-24T06:46:05.041Z,98998.59
2022-09-24T06:48:32.209Z,98992.41
2022-09-24T06:50:58.827Z,98993.81
2022-09-24T06:53:26.063Z,98985.44
2022-09-24T06:55:53.402Z,98993.09
2022-09-24T06:58:21.037Z,98987.03
2022-09-24T07:01:06.645Z,99001.50
2022-09-24T07:03:35.005Z,98987.69
2022-09-24T07:06:05.142Z,98997.66
2022-09-24T07:08:32.108Z,98993.34
2022-09-24T07:10:59.025Z,98992.25
2022-09-24T07:13:25.691Z,98988.94
2022-09-24T07:15:52.899Z,98997.34
2022-09-24T07:18:20.514Z,98992.75
2022-09-24T07:20:54.752Z,98993.88
2022-09-24T07:23:21.889Z,98997.53
2022-09-24T07:25:49.333Z,98994.16
2022-09-24T07:28:16.921Z,98988.53
2022-09-24T07:30:43.631Z,98993.31
2022-09-24T07:33:10.214Z,98989.94
2022-09-24T07:35:40.022Z,98992.00
2022-09-24T07:38:12.086Z,98989.75
2022-09-24T07:40:38.672Z,98992.66
2022-09-24T07:43:06.981Z,98996.94
2022-09-24T07:45:34.041Z,99005.56
2022-09-24T07:48:02.760Z,99000.13
2022-09-24T07:50:32.427Z,99002.34
2022-09-24T07:52:59.132Z,99004.94
2022-09-24T07:55:26.113Z,99001.00
2022-09-24T07:57:54.910Z,99004.72
2022-09-24T08:00:22.928Z,99002.50
2022-09-24T08:02:50.162Z,99003.91
2022-09-24T08:05:18.170Z,99005.16
2022-09-24T08:07:55.751Z,99004.59
2022-09-24T08:10:23.147Z,99003.78
2022-09-24T08:12:50.457Z,99001.41
2022-09-24T08:15:17.144Z,99006.84
2022-09-24T08:17:43.765Z,99015.00
2022-09-24T08:20:10.764Z,99016.47
2022-09-24T08:22:37.346Z,99019.84
2022-09-24T08:25:04.815Z,99023.34
2022-09-24T08:27:32.945Z,99025.28
2022-09-24T08:30:00.710Z,99022.69
2022-09-24T08:32:28.993Z,99027.13
2022-09-24T08:34:55.560Z,99027.72
2022-09-24T08:37:22.510Z,99026.75
2022-09-24T08:39:49.113Z,99015.84
2022-09-24T08:42:31.511Z,99017.31
2022-09-24T08:45:17.344Z,99023.66
2022-09-24T08:47:55.107Z,99016.38
2022-09-24T08:50:29.278Z,99023.94
2022-09-24T08:53:06.595Z,99023.03
2022-09-24T08:55:49.941Z,99023.94
2022-09-24T08:58:55.192Z,99020.56
2022-09-24T09:01:38.906Z,99030.47
2022-09-24T09:04:14.274Z,99028.78
2022-09-24T09:07:06.409Z,99023.91
2022-09-24T09:10:11.104Z,99021.00
2022-09-24T09:12:42.571Z,99023.03
2022-09-24T09:15:18.071Z,99021.66
2022-09-24T09:18:05.095Z,99025.00
2022-09-24T09:20:41.247Z,99025.22
2022-09-24T09:23:13.941Z,99023.09
2022-09-24T09:25:47.320Z,99023.00
2022-09-24T09:28:15.606Z,99033.91
2022-09-24T09:31:00.380Z,99034.34
2022-09-24T09:33:47.928Z,99029.38
2022-09-24T09:36:37.164Z,99026.66
2022-09-24T09:39:59.109Z,99034.41
2022-09-24T09:42:36.153Z,99033.16
2022-09-24T09:45:07.537Z,99036.69
2022-09-24T09:47:45.948Z,99030.78
2022-09-24T09:50:27.540Z,99032.84
2022-09-24T09:52:55.582Z,99033.75
2022-09-24T09:55:26.401Z,99024.41
2022-09-24T09:57:54.416Z,99031.69
2022-09-24T10:00:27.603Z,99023.25
2022-09-24T10:02:54.987Z,99021.75
2022-09-24T10:05:27.361Z,99025.75
2022-09-24T10:07:58.270Z,99031.50
2022-09-24T10:10:28.952Z,99017.91
2022-09-24T10:13:09.051Z,99021.09
2022-09-24T10:15:49.085Z,99011.53
2022-09-24T10:18:16.594Z,99010.47
2022-09-24T10:20:48.224Z,99011.88
2022-09-24T10:23:22.967Z,99009.88
2022-09-24T10:25:59.881Z,99005.72
2022-09-24T10:28:46.426Z,99009.91
2022-09-24T10:31:29.603Z,99007.22
2022-09-24T10:33:59.116Z,99015.03
2022-09-24T10:36:32.649Z,99009.03
2022-09-24T10:39:08.397Z,99016.19
2022-09-24T10:41:36.006Z,99009.13
2022-09-24T10:44:11.700Z,99009.31
2022-09-24T10:46:56.940Z,99011.59
2022-09-24T10:49:27.402Z,99002.50
2022-09-24T10:52:10.274Z,99010.34
2022-09-24T10:54:49.915Z,99003.66
2022-09-24T10:57:39.713Z,99009.31
2022-09-24T11:00:18.389Z,99005.41
2022-09-24T11:02:58.041Z,99010.19
2022-09-24T11:05:49.861Z,98999.41
2022-09-24T11:08:46.943Z,98997.03
2022-09-24T11:11:37.640Z,99006.50
2022-09-24T11:14:23.764Z,99000.31
2022-09-24T11:17:05.038Z,99007.81
2022-09-24T11:19:46.759Z,99005.78
2022-09-24T11:22:17.505Z,99000.31
2022-09-24T11:24:53.369Z,98995.09
2022-09-24T11:27:50.855Z,98998.53
2022-09-24T11:30:24.915Z,98997.66
2022-09-24T11:33:29.803Z,98990.94
2022-09-24T11:36:13.693Z,98997.38
2022-09-24T11:39:08.227Z,99003.91
2022-09-24T11:41:37.423Z,98997.66
2022-09-24T11:44:11.289Z,98997.91
2022-09-24T11:46:48.874Z,98997.22
2022-09-24T11:49:24.490Z,98996.84
2022-09-24T11:52:11.512Z,98998.72
2022-09-24T11:54:46.675Z,98992.53
2022-09-24T11:57:27.948Z,98987.00
2022-09-24T11:59:54.543Z,98981.59
2022-09-24T12:02:30.372Z,98980.22
2022-09-24T12:05:03.150Z,98975.63
2022-09-24T12:07:40.385Z,98975.06
2022-09-24T12:10:32.934Z,98976.31
2022-09-24T12:13:14.513Z,98971.19
2022-09-24T12:15:50.606Z,98973.03
2022-09-24T12:18:54.185Z,98981.47
2022-09-24T12:21:28.243Z,98973.41
2022-09-24T12:24:05.104Z,98974.91
2022-09-24T12:26:37.911Z,98964.91
2022-09-24T12:29:25.926Z,98972.78
2022-09-24T12:32:22.519Z,98965.34
2022-09-24T12:34:59.918Z,98962.59
2022-09-24T12:37:34.271Z,98970.66
2022-09-24T12:40:53.309Z,98969.50
2022-09-24T12:43:28.165Z,98975.09
2022-09-24T12:46:04.742Z,98975.41
2022-09-24T12:48:36.886Z,98965.63
2022-09-24T12:51:04.737Z,98970.53
2022-09-24T12:53:41.909Z,98971.50
2022-09-24T12:56:10.363Z,98958.00
2022-09-24T12:58:44.928Z,98962.69
2022-09-24T13:01:26.871Z,98959.59
2022-09-24T13:04:15.096Z,98956.03
2022-09-24T13:06:43.868Z,98951.81
2022-09-24T13:09:35.478Z,98954.41
2022-09-24T13:12:18.088Z,98957.16
2022-09-24T13:15:08.050Z,98943.25
2022-09-24T13:17:38.371Z,98949.59
2022-09-24T13:20:28.415Z,98945.78
2022-09-24T13:23:31.754Z,98939.63
2022-09-24T13:26:02.991Z,98940.34
2022-09-24T13:28:38.701Z,98953.34
2022-09-24T13:31:21.352Z,98957.75
2022-09-24T13:33:51.513Z,98956.25
2022-09-24T13:36:35.602Z,98961.88
2022-09-24T13:39:21.333Z,98967.47
2022-09-24T13:42:06.416Z,98959.44
2022-09-24T13:44:40.236Z,98963.00
2022-09-24T13:47:27.596Z,98960.25
2022-09-24T13:50:03.739Z,98956.03
2022-09-24T13:52:38.503Z,98951.53
2022-09-24T13:55:17.713Z,98965.91
2022-09-24T13:57:46.290Z,98958.41
2022-09-24T14:00:16.221Z,98955.56
2022-09-24T14:02:53.694Z,98953.66
2022-09-24T14:05:22.024Z,98957.53
2022-09-24T14:08:06.705Z,98946.50
2022-09-24T14:10:33.752Z,98947.63
2022-09-24T14:13:22.991Z,98943.06
2022-09-24T14:15:55.652Z,98945.09
2022-09-24T14:18:23.635Z,98949.25
2022-09-24T14:21:12.816Z,98940.66
2022-09-24T14:23:48.234Z,98944.56
2022-09-24T14:26:32.944Z,98951.88
2022-09-24T14:29:03.619Z,98949.44
2022-09-24T14:31:30.453Z,98944.22
2022-09-24T14:34:01.688Z,98948.81
2022-09-24T14:36:29.345Z,98944.81
2022-09-24T14:39:02.748Z,98940.25
2022-09-24T14:41:31.998Z,98948.44
2022-09-24T14:44:03.803Z,98947.09
2022-09-24T14:46:48.710Z,98946.50
2022-09-24T14:49:27.265Z,98940.66
2022-09-24T14:52:01.862Z,98938.63
2022-09-24T14:54:35.468Z,98935.72
2022-09-24T14:57:16.953Z,98938.75
2022-09-24T14:59:44.957Z,98936.44
2022-09-24T15:02:17.254Z,98935.09
2022-09-24T15:04:50.104Z,98930.59
2022-09-24T15:07:24.012Z,98927.44
2022-09-24T15:09:53.240Z,98934.47
2022-09-24T15:12:30.951Z,98930.44
2022-09-24T15:14:57.517Z,98921.09
2022-09-24T15:17:29.125Z,98926.56
2022-09-24T15:19:57.996Z,98925.84
2022-09-24T15:22:29.385Z,98926.56
2022-09-24T15:25:01.646Z,98929.13
2022-09-24T15:27:31.328Z,98924.81
2022-09-24T15:29:59.992Z,98917.91
2022-09-24T15:32:32.492Z,98928.59
2022-09-24T15:34:59.734Z,98921.19
2022-09-24T15:37:28.848Z,98927.88
2022-09-24T15:40:05.243Z,98924.63
2022-09-24T15:42:31.898Z,98920.84
2022-09-24T15:44:58.960Z,98920.56
2022-09-24T15:47:25.612Z,98920.84
2022-09-24T15:49:52.211Z,98927.91
2022-09-24T15:52:27.075Z,98922.34
2022-09-24T15:54:55.833Z,98920.75
2022-09-24T15:57:26.553Z,98915.03
2022-09-24T15:59:53.661Z,98918.91
2022-09-24T16:02:24.872Z,98909.25
2022-09-24T16:04:52.082Z,98910.31
2022-09-24T16:07:19.028Z,98916.34
2022-09-24T16:09:45.707Z,98913.78
2022-09-24T16:12:15.233Z,98916.00
2022-09-24T16:14:41.832Z,98911.22
2022-09-24T16:17:08.372Z,98914.94
2022-09-24T16:19:35.067Z,98919.34
2022-09-24T16:22:01.669Z,98914.50
2022-09-24T16:24:32.258Z,98925.69
2022-09-24T16:26:59.511Z,98925.19
2022-09-24T16:29:26.137Z,98926.91
2022-09-24T16:31:52.663Z,98933.00
2022-09-24T16:34:19.232Z,98931.97
2022-09-24T16:36:45.789Z,98933.38
2022-09-24T16:39:12.373Z,98933.63
2022-09-24T16:41:39.213Z,98940.91
2022-09-24T16:44:06.877Z,98943.91
2022-09-24T16:46:33.436Z,98944.03
2022-09-24T16:49:00.101Z,98946.69
2022-09-24T16:51:26.695Z,98948.16
2022-09-24T16:53:56.799Z,98950.44
2022-09-24T16:56:24.008Z,98950.72
2022-09-24T16:58:51.108Z,98946.72
2022-09-24T17:01:20.077Z,98955.94
2022-09-24T17:03:57.925Z,98948.69
2022-09-24T17:06:27.266Z,98951.66
2022-09-24T17:09:13.039Z,98949.19
2022-09-24T17:11:40.553Z,98952.81
2022-09-24T17:14:13.395Z,98955.78
2022-09-24T17:16:39.992Z,98963.84
2022-09-24T17:19:08.171Z,98960.59
2022-09-24T17:21:38.932Z,98962.38
2022-09-24T17:24:06.070Z,98969.66
2022-09-24T17:26:32.997Z,98971.16
2022-09-24T17:28:59.522Z,98967.16
2022-09-24T17:31:26.950Z,98967.84
2022-09-24T17:33:58.460Z,98967.28
2022-09-24T17:36:26.823Z,98971.81
2022-09-24T17:38:53.776Z,98974.88
2022-09-24T17:41:20.407Z,98975.22
2022-09-24T17:43:48.088Z,98973.19
2022-09-24T17:46:17.940Z,98974.66
2022-09-24T17:48:46.374Z,98971.47
2022-09-24T17:51:16.200Z,98982.72
2022-09-24T17:53:43.309Z,98978.75
2022-09-24T17:56:12.498Z,98981.03
2022-09-24T17:58:44.133Z,98986.03
2022-09-24T18:01:14.329Z,98982.84
2022-09-24T18:03:41.412Z,98992.16
2022-09-24T18:06:11.066Z,98988.16
2022-09-24T18:08:42.461Z,98992.81
2022-09-24T18:11:10.555Z,98994.31
2022-09-24T18:13:37.380Z,98991.44
2022-09-24T18:16:09.794Z,98992.59
2022-09-24T18:18:36.784Z,98984.75
2022-09-24T18:21:05.833Z,98994.84
2022-09-24T18:23:35.033Z,98997.91
2022-09-24T18:26:11.922Z,98992.34
2022-09-24T18:28:58.737Z,98993.81
2022-09-24T18:31:28.927Z,99000.97
2022-09-24T18:33:58.308Z,98992.44
2022-09-24T18:36:28.240Z,98993.25
2022-09-24T18:38:56.017Z,99001.91
2022-09-24T18:41:24.953Z,99004.63
2022-09-24T18:43:53.654Z,99007.34
2022-09-24T18:46:22.070Z,99004.16
2022-09-24T18:48:50.845Z,99018.91
2022-09-24T18:51:23.772Z,99025.06
2022-09-24T18:53:55.675Z,99023.47
2022-09-24T18:56:24.168Z,99025.72
2022-09-24T18:59:09.451Z,99022.06
2022-09-24T19:01:37.502Z,99021.59
2022-09-24T19:04:05.213Z,99019.56
2022-09-24T19:06:34.203Z,99020.22
2022-09-24T19:09:00.858Z,99015.91
2022-09-24T19:11:28.124Z,99015.47
2022-09-24T19:13:54.661Z,99015.78
2022-09-24T19:16:23.783Z,99015.13
2022-09-24T19:18:51.922Z,99022.50
2022-09-24T19:21:19.068Z,99021.38
2022-09-24T19:23:50.461Z,99019.31
2022-09-24T19:26:22.568Z,99019.66
2022-09-24T19:28:53.150Z,99022.03
2022-09-24T19:31:22.896Z,99029.09
2022-09-24T19:33:50.717Z,99022.97
2022-09-24T19:36:17.675Z,99020.22
2022-09-24T19:38:44.800Z,99029.22
2022-09-24T19:41:14.994Z,99028.41
2022-09-24T19:43:43.572Z,99028.41
2022-09-24T19:46:12.848Z,99034.31
2022-09-24T19:48:41.409Z,99042.47
2022-09-24T19:51:12.604Z,99033.53
2022-09-24T19:53:39.279Z,99033.06
2022-09-24T19:56:07.844Z,99034.66
2022-09-24T19:58:34.893Z,99029.53
2022-09-24T20:01:06.940Z,99036.78
2022-09-24T20:03:36.614Z,99038.34
2022-09-24T20:06:11.787Z,99034.16
2022-09-24T20:08:39.055Z,99039.59
2022-09-24T20:11:07.589Z,99040.72
2022-09-24T20:13:34.470Z,99043.31
2022-09-24T20:16:03.550Z,99040.13
2022-09-24T20:18:31.274Z,99048.50
2022-09-24T20:21:05.468Z,99049.16
2022-09-24T20:23:32.162Z,99048.34
2022-09-24T20:26:17.285Z,99045.97
2022-09-24T20:28:44.427Z,99050.97
2022-09-24T20:31:15.140Z,99035.63
2022-09-24T20:33:43.168Z,99046.06
2022-09-24T20:36:16.544Z,99047.19
2022-09-24T20:38:46.035Z,99043.19
2022-09-24T20:41:15.221Z,99048.63
2022-09-24T20:43:41.789Z,99049.31
2022-09-24T20:46:14.284Z,99050.91
2022-09-24T20:48:40.827Z,99043.06
2022-09-24T20:51:12.094Z,99044.66
2022-09-24T20:53:39.314Z,99046.94
2022-09-24T20:56:06.460Z,99045.31
2022-09-24T20:58:33.868Z,99042.94
2022-09-24T21:01:01.074Z,99041.66
2022-09-24T21:03:43.384Z,99034.97
2022-09-24T21:06:12.740Z,99038.38
2022-09-24T21:08:41.764Z,99034.84
2022-09-24T21:11:13.609Z,99038.53
2022-09-24T21:13:42.551Z,99037.63
2022-09-24T21:16:10.256Z,99040.53
2022-09-24T21:18:40.673Z,99035.31
2022-09-24T21:21:15.472Z,99046.84
2022-09-24T21:23:47.385Z,99048.63
2022-09-24T21:26:15.507Z,99046.91
2022-09-24T21:28:43.316Z,99047.22
2022-09-24T21:31:10.210Z,99053.00
2022-09-24T21:33:36.976Z,99053.78
2022-09-24T21:36:05.702Z,99056.97
2022-09-24T21:38:33.124Z,99058.56
2022-09-24T21:41:01.387Z,99061.19
2022-09-24T21:43:33.801Z,99059.25
2022-09-24T21:46:05.025Z,99062.94
2022-09-24T21:48:32.893Z,99068.25
2022-09-24T21:51:07.141Z,99059.63
2022-09-24T21:53:34.293Z,99061.88
2022-09-24T21:56:02.272Z,99064.09
2022-09-24T21:58:29.859Z,99064.78
2022-09-24T22:01:00.921Z,99063.84
2022-09-24T22:03:30.431Z,99061.31
2022-09-24T22:05:59.329Z,99065.16
2022-09-24T22:08:29.138Z,99065.00
2022-09-24T22:11:07.748Z,99065.50
2022-09-24T22:13:36.984Z,99065.50
2022-09-24T22:16:05.646Z,99066.13
2022-09-24T22:18:33.400Z,99066.47
2022-09-24T22:21:04.639Z,99077.66
2022-09-24T22:23:31.157Z,99072.88
2022-09-24T22:25:59.446Z,99071.28
2022-09-24T22:28:27.629Z,99064.13
2022-09-24T22:30:59.424Z,99062.38
2022-09-24T22:33:48.442Z,99070.03
2022-09-24T22:36:15.751Z,99067.19
2022-09-24T22:38:42.935Z,99065.59
2022-09-24T22:41:11.057Z,99060.47
2022-09-24T22:43:39.308Z,99063.19
2022-09-24T22:46:08.932Z,99064.66
2022-09-24T22:48:35.973Z,99061.13
2022-09-24T22:51:04.245Z,99066.56
2022-09-24T22:53:34.830Z,99063.06
2022-09-24T22:56:10.334Z,99065.78
2022-09-24T22:58:38.402Z,99070.41
2022-09-24T23:01:09.643Z,99071.06
2022-09-24T23:03:37.507Z,99068.34
2022-09-24T23:06:08.306Z,99066.28
2022-09-24T23:08:36.443Z,99063.88
2022-09-24T23:11:07.166Z,99069.66
2022-09-24T23:13:34.063Z,99065.34
2022-09-24T23:16:10.257Z,99063.75
2022-09-24T23:18:37.916Z,99070.63
2022-09-24T23:21:10.057Z,99069.34
2022-09-24T23:23:37.164Z,99066.31
2022-09-24T23:26:16.260Z,99063.91
2022-09-24T23:28:44.677Z,99065.03
2022-09-24T23:31:14.256Z,99055.28
2022-09-24T23:33:42.266Z,99060.53
2022-09-24T23:36:11.272Z,99062.94
2022-09-24T23:38:38.503Z,99064.53
2022-09-24T23:41:06.461Z,99069.19
2022-09-24T23:43:33.732Z,99070.78
2022-09-24T23:46:01.304Z,99069.19
2022-09-24T23:48:28.704Z,99073.00
2022-09-24T23:50:55.775Z,99075.88
2022-09-24T23:53:22.308Z,99068.88
2022-09-24T23:55:49.858Z,99072.72
2022-09-24T23:58:20.064Z,99081.19
